sensor_id;sensor_type;location;lat;lon;timestamp;temperature;humidity
16384;DHT22;8301;51.440;6.610;2023-02-26T00:02:08;-0.80;99.90
16384;DHT22;8301;51.440;6.610;2023-02-26T00:04:35;-0.80;99.90
16384;DHT22;8301;51.440;6.610;2023-02-26T00:07:02;-0.80;99.90
16384;DHT22;8301;51.440;6.610;2023-02-26T00:09:31;-0.70;99.90
16384;DHT22;8301;51.440;6.610;2023-02-26T00:11:58;-0.60;99.90
16384;DHT22;8301;51.440;6.610;2023-02-26T00:14:25;-0.40;99.90
16384;DHT22;8301;51.440;6.610;2023-02-26T00:17:06;-0.40;99.90
16384;DHT22;8301;51.440;6.610;2023-02-26T00:19:33;-0.30;99.90
16384;DHT22;8301;51.440;6.610;2023-02-26T00:22:00;-0.20;99.90
16384;DHT22;8301;51.440;6.610;2023-02-26T00:24:27;-0.10;99.90
16384;DHT22;8301;51.440;6.610;2023-02-26T00:26:53;0.00;99.90
16384;DHT22;8301;51.440;6.610;2023-02-26T00:29:20;0.00;99.90
16384;DHT22;8301;51.440;6.610;2023-02-26T00:31:47;0.00;99.90
16384;DHT22;8301;51.440;6.610;2023-02-26T00:34:14;0.00;99.90
16384;DHT22;8301;51.440;6.610;2023-02-26T00:41:55;0.10;99.90
16384;DHT22;8301;51.440;6.610;2023-02-26T00:44:21;0.10;99.90
16384;DHT22;8301;51.440;6.610;2023-02-26T00:46:53;0.10;99.90
16384;DHT22;8301;51.440;6.610;2023-02-26T00:52:09;0.30;99.90
16384;DHT22;8301;51.440;6.610;2023-02-26T00:54:36;0.30;99.90
16384;DHT22;8301;51.440;6.610;2023-02-26T00:57:06;0.30;99.90
16384;DHT22;8301;51.440;6.610;2023-02-26T00:59:32;0.40;99.90
16384;DHT22;8301;51.440;6.610;2023-02-26T01:01:59;0.40;99.90
16384;DHT22;8301;51.440;6.610;2023-02-26T01:04:26;0.40;99.90
16384;DHT22;8301;51.440;6.610;2023-02-26T01:06:54;0.40;99.90
16384;DHT22;8301;51.440;6.610;2023-02-26T01:11:53;0.40;20.10
16384;DHT22;8301;51.440;6.610;2023-02-26T01:14:20;0.40;20.40
16384;DHT22;8301;51.440;6.610;2023-02-26T01:22:12;0.30;4.90
16384;DHT22;8301;51.440;6.610;2023-02-26T01:24:37;0.30;71.30
16384;DHT22;8301;51.440;6.610;2023-02-26T01:27:04;0.30;17.80
16384;DHT22;8301;51.440;6.610;2023-02-26T01:29:31;0.40;13.90
16384;DHT22;8301;51.440;6.610;2023-02-26T01:32:05;0.30;9.30
16384;DHT22;8301;51.440;6.610;2023-02-26T01:34:33;0.30;2.90
16384;DHT22;8301;51.440;6.610;2023-02-26T01:37:10;0.20;1.00
16384;DHT22;8301;51.440;6.610;2023-02-26T01:39:44;0.20;28.80
16384;DHT22;8301;51.440;6.610;2023-02-26T01:42:19;0.20;12.10
16384;DHT22;8301;51.440;6.610;2023-02-26T01:44:39;0.20;34.10
16384;DHT22;8301;51.440;6.610;2023-02-26T01:49:35;0.30;12.00
16384;DHT22;8301;51.440;6.610;2023-02-26T01:54:42;0.20;44.80
16384;DHT22;8301;51.440;6.610;2023-02-26T01:57:14;0.20;11.90
16384;DHT22;8301;51.440;6.610;2023-02-26T01:59:45;0.20;1.00
16384;DHT22;8301;51.440;6.610;2023-02-26T02:02:15;0.20;1.00
16384;DHT22;8301;51.440;6.610;2023-02-26T02:04:43;0.10;1.00
16384;DHT22;8301;51.440;6.610;2023-02-26T02:07:10;0.00;6.50
16384;DHT22;8301;51.440;6.610;2023-02-26T02:09:43;0.00;19.50
16384;DHT22;8301;51.440;6.610;2023-02-26T02:15:10;-0.10;59.80
16384;DHT22;8301;51.440;6.610;2023-02-26T02:17:40;-0.10;98.30
16384;DHT22;8301;51.440;6.610;2023-02-26T02:25:30;-0.20;99.90
16384;DHT22;8301;51.440;6.610;2023-02-26T02:30:37;-0.30;99.90
16384;DHT22;8301;51.440;6.610;2023-02-26T02:33:09;-0.40;99.90
16384;DHT22;8301;51.440;6.610;2023-02-26T02:35:45;-0.40;99.90
16384;DHT22;8301;51.440;6.610;2023-02-26T02:38:08;-0.40;99.90
16384;DHT22;8301;51.440;6.610;2023-02-26T02:40:38;-0.40;99.90
16384;DHT22;8301;51.440;6.610;2023-02-26T02:43:13;-0.50;99.90
16384;DHT22;8301;51.440;6.610;2023-02-26T02:48:24;-0.50;99.90
16384;DHT22;8301;51.440;6.610;2023-02-26T02:50:59;-0.60;99.90
16384;DHT22;8301;51.440;6.610;2023-02-26T02:53:23;-0.60;99.90
16384;DHT22;8301;51.440;6.610;2023-02-26T02:56:01;-0.60;99.90
16384;DHT22;8301;51.440;6.610;2023-02-26T02:58:33;-0.60;99.90
16384;DHT22;8301;51.440;6.610;2023-02-26T03:00:57;-0.70;99.90
16384;DHT22;8301;51.440;6.610;2023-02-26T03:03:38;-0.70;99.90
16384;DHT22;8301;51.440;6.610;2023-02-26T03:06:04;-0.70;99.90
16384;DHT22;8301;51.440;6.610;2023-02-26T03:08:33;-0.70;99.90
16384;DHT22;8301;51.440;6.610;2023-02-26T03:10:59;-0.70;99.90
16384;DHT22;8301;51.440;6.610;2023-02-26T03:13:26;-0.70;99.90
16384;DHT22;8301;51.440;6.610;2023-02-26T03:21:19;-0.90;99.90
16384;DHT22;8301;51.440;6.610;2023-02-26T03:26:11;-1.00;99.90
16384;DHT22;8301;51.440;6.610;2023-02-26T03:29:26;-1.00;99.90
16384;DHT22;8301;51.440;6.610;2023-02-26T03:31:54;-1.10;99.90
16384;DHT22;8301;51.440;6.610;2023-02-26T03:33:51;-1.00;99.90
16384;DHT22;8301;51.440;6.610;2023-02-26T03:41:56;-1.00;99.90
16384;DHT22;8301;51.440;6.610;2023-02-26T03:44:06;-0.90;99.90
16384;DHT22;8301;51.440;6.610;2023-02-26T03:46:33;-0.90;99.90
16384;DHT22;8301;51.440;6.610;2023-02-26T05:41:58;-0.90;99.90
16384;DHT22;8301;51.440;6.610;2023-02-26T05:44:24;-1.50;1.00
16384;DHT22;8301;51.440;6.610;2023-02-26T05:46:51;-1.50;1.00
16384;DHT22;8301;51.440;6.610;2023-02-26T05:49:18;-1.50;1.00
16384;DHT22;8301;51.440;6.610;2023-02-26T05:51:45;-1.60;1.00
16384;DHT22;8301;51.440;6.610;2023-02-26T05:54:13;-1.60;1.00
16384;DHT22;8301;51.440;6.610;2023-02-26T05:56:40;-1.60;1.00
16384;DHT22;8301;51.440;6.610;2023-02-26T05:59:07;-1.50;1.00
16384;DHT22;8301;51.440;6.610;2023-02-26T06:01:35;-1.60;1.00
16384;DHT22;8301;51.440;6.610;2023-02-26T06:04:08;-1.60;1.00
16384;DHT22;8301;51.440;6.610;2023-02-26T06:06:35;-1.60;1.00
16384;DHT22;8301;51.440;6.610;2023-02-26T06:09:02;-1.60;1.00
16384;DHT22;8301;51.440;6.610;2023-02-26T06:11:29;-1.60;1.00
16384;DHT22;8301;51.440;6.610;2023-02-26T06:13:56;-1.70;1.00
16384;DHT22;8301;51.440;6.610;2023-02-26T06:16:25;-1.70;1.00
16384;DHT22;8301;51.440;6.610;2023-02-26T06:18:51;-1.60;1.00
16384;DHT22;8301;51.440;6.610;2023-02-26T06:21:18;-1.70;1.00
16384;DHT22;8301;51.440;6.610;2023-02-26T06:23:45;-1.70;1.00
16384;DHT22;8301;51.440;6.610;2023-02-26T06:26:13;-1.70;1.00
16384;DHT22;8301;51.440;6.610;2023-02-26T06:28:40;-1.70;1.00
16384;DHT22;8301;51.440;6.610;2023-02-26T06:31:06;-1.70;1.00
16384;DHT22;8301;51.440;6.610;2023-02-26T06:33:33;-1.70;1.00
16384;DHT22;8301;51.440;6.610;2023-02-26T06:36:00;-1.60;1.00
16384;DHT22;8301;51.440;6.610;2023-02-26T06:38:27;-1.60;1.00
16384;DHT22;8301;51.440;6.610;2023-02-26T06:40:55;-1.60;1.00
16384;DHT22;8301;51.440;6.610;2023-02-26T06:43:22;-1.60;1.00
16384;DHT22;8301;51.440;6.610;2023-02-26T06:45:48;-1.70;1.00
16384;DHT22;8301;51.440;6.610;2023-02-26T06:48:20;-1.60;1.00
16384;DHT22;8301;51.440;6.610;2023-02-26T06:50:47;-1.60;1.00
16384;DHT22;8301;51.440;6.610;2023-02-26T06:53:14;-1.70;1.00
16384;DHT22;8301;51.440;6.610;2023-02-26T06:55:42;-1.60;1.00
16384;DHT22;8301;51.440;6.610;2023-02-26T06:58:10;-1.60;1.00
16384;DHT22;8301;51.440;6.610;2023-02-26T07:00:37;-1.50;1.00
16384;DHT22;8301;51.440;6.610;2023-02-26T07:03:07;-1.50;1.00
16384;DHT22;8301;51.440;6.610;2023-02-26T07:05:35;-1.50;99.90
16384;DHT22;8301;51.440;6.610;2023-02-26T07:08:02;-1.40;99.90
16384;DHT22;8301;51.440;6.610;2023-02-26T07:10:35;-1.40;99.90
16384;DHT22;8301;51.440;6.610;2023-02-26T07:12:58;-1.40;99.90
16384;DHT22;8301;51.440;6.610;2023-02-26T07:15:25;-1.40;99.90
16384;DHT22;8301;51.440;6.610;2023-02-26T07:17:52;-1.40;99.90
16384;DHT22;8301;51.440;6.610;2023-02-26T07:20:21;-1.30;99.90
16384;DHT22;8301;51.440;6.610;2023-02-26T07:22:48;-1.30;99.90
16384;DHT22;8301;51.440;6.610;2023-02-26T07:25:15;-1.20;42.60
16384;DHT22;8301;51.440;6.610;2023-02-26T07:27:41;-1.10;1.00
16384;DHT22;8301;51.440;6.610;2023-02-26T07:30:09;-1.10;1.00
16384;DHT22;8301;51.440;6.610;2023-02-26T07:32:36;-1.00;99.90
16384;DHT22;8301;51.440;6.610;2023-02-26T07:35:03;-0.90;99.90
16384;DHT22;8301;51.440;6.610;2023-02-26T07:37:30;-0.80;99.90
16384;DHT22;8301;51.440;6.610;2023-02-26T07:39:57;-0.60;1.00
16384;DHT22;8301;51.440;6.610;2023-02-26T07:42:25;-0.20;99.90
16384;DHT22;8301;51.440;6.610;2023-02-26T07:47:18;0.00;99.90
16384;DHT22;8301;51.440;6.610;2023-02-26T07:49:45;0.40;99.90
16384;DHT22;8301;51.440;6.610;2023-02-26T07:52:15;0.50;98.70
16384;DHT22;8301;51.440;6.610;2023-02-26T07:54:42;0.80;1.00
16384;DHT22;8301;51.440;6.610;2023-02-26T07:59:35;0.30;1.00
16384;DHT22;8301;51.440;6.610;2023-02-26T08:02:02;0.60;93.90
16384;DHT22;8301;51.440;6.610;2023-02-26T08:04:29;0.50;1.00
16384;DHT22;8301;51.440;6.610;2023-02-26T08:09:24;0.30;1.00
16384;DHT22;8301;51.440;6.610;2023-02-26T08:11:51;0.50;1.00
16384;DHT22;8301;51.440;6.610;2023-02-26T08:24:04;0.50;1.00
16384;DHT22;8301;51.440;6.610;2023-02-26T08:26:33;0.90;99.90
16384;DHT22;8301;51.440;6.610;2023-02-26T08:28:59;0.70;1.00
16384;DHT22;8301;51.440;6.610;2023-02-26T08:31:26;0.80;1.00
16384;DHT22;8301;51.440;6.610;2023-02-26T08:33:53;0.90;99.90
16384;DHT22;8301;51.440;6.610;2023-02-26T08:36:20;0.80;99.90
16384;DHT22;8301;51.440;6.610;2023-02-26T08:38:50;0.80;99.90
16384;DHT22;8301;51.440;6.610;2023-02-26T08:41:17;1.20;99.90
16384;DHT22;8301;51.440;6.610;2023-02-26T08:43:44;1.30;99.90
16384;DHT22;8301;51.440;6.610;2023-02-26T08:46:11;1.30;99.90
16384;DHT22;8301;51.440;6.610;2023-02-26T08:48:44;1.30;99.90
16384;DHT22;8301;51.440;6.610;2023-02-26T08:58:37;1.50;93.50
16384;DHT22;8301;51.440;6.610;2023-02-26T09:01:04;2.40;1.00
16384;DHT22;8301;51.440;6.610;2023-02-26T09:03:31;2.60;1.00
16384;DHT22;8301;51.440;6.610;2023-02-26T09:05:58;2.80;1.00
16384;DHT22;8301;51.440;6.610;2023-02-26T09:08:24;3.50;1.00
16384;DHT22;8301;51.440;6.610;2023-02-26T09:10:51;3.50;99.90
16384;DHT22;8301;51.440;6.610;2023-02-26T09:15:47;3.50;99.90
16384;DHT22;8301;51.440;6.610;2023-02-26T09:18:14;4.00;99.90
16384;DHT22;8301;51.440;6.610;2023-02-26T09:20:44;4.50;99.90
16384;DHT22;8301;51.440;6.610;2023-02-26T09:23:12;4.80;99.90
16384;DHT22;8301;51.440;6.610;2023-02-26T09:25:39;4.10;99.90
16384;DHT22;8301;51.440;6.610;2023-02-26T09:28:06;3.80;99.90
16384;DHT22;8301;51.440;6.610;2023-02-26T09:30:33;4.10;99.90
16384;DHT22;8301;51.440;6.610;2023-02-26T09:33:00;4.30;99.90
16384;DHT22;8301;51.440;6.610;2023-02-26T09:35:27;4.60;99.90
16384;DHT22;8301;51.440;6.610;2023-02-26T09:38:03;4.80;99.90
16384;DHT22;8301;51.440;6.610;2023-02-26T09:46:20;4.50;99.90
16384;DHT22;8301;51.440;6.610;2023-02-26T09:48:35;4.10;99.90
16384;DHT22;8301;51.440;6.610;2023-02-26T09:51:02;3.90;99.90
16384;DHT22;8301;51.440;6.610;2023-02-26T09:53:38;3.80;99.90
16384;DHT22;8301;51.440;6.610;2023-02-26T09:56:15;3.70;99.90
16384;DHT22;8301;51.440;6.610;2023-02-26T09:58:47;3.40;99.90
16384;DHT22;8301;51.440;6.610;2023-02-26T10:01:22;3.20;99.90
16384;DHT22;8301;51.440;6.610;2023-02-26T10:06:46;3.20;99.90
16384;DHT22;8301;51.440;6.610;2023-02-26T10:11:51;3.10;99.90
16384;DHT22;8301;51.440;6.610;2023-02-26T10:17:02;3.00;99.90
16384;DHT22;8301;51.440;6.610;2023-02-26T10:22:14;3.50;99.90
16384;DHT22;8301;51.440;6.610;2023-02-26T10:24:42;3.70;99.90
16384;DHT22;8301;51.440;6.610;2023-02-26T10:27:17;3.70;99.90
16384;DHT22;8301;51.440;6.610;2023-02-26T10:29:59;3.70;99.90
16384;DHT22;8301;51.440;6.610;2023-02-26T10:32:37;3.60;99.90
16384;DHT22;8301;51.440;6.610;2023-02-26T10:35:07;3.80;99.90
16384;DHT22;8301;51.440;6.610;2023-02-26T10:40:00;3.60;99.90
16384;DHT22;8301;51.440;6.610;2023-02-26T10:42:29;3.60;98.60
16384;DHT22;8301;51.440;6.610;2023-02-26T10:45:01;3.60;99.90
16384;DHT22;8301;51.440;6.610;2023-02-26T10:47:32;3.60;92.80
16384;DHT22;8301;51.440;6.610;2023-02-26T10:50:03;3.30;52.10
16384;DHT22;8301;51.440;6.610;2023-02-26T10:52:32;3.20;40.40
16384;DHT22;8301;51.440;6.610;2023-02-26T10:55:13;3.10;52.40
16384;DHT22;8301;51.440;6.610;2023-02-26T10:57:49;3.20;50.60
16384;DHT22;8301;51.440;6.610;2023-02-26T11:00:18;3.40;60.80
16384;DHT22;8301;51.440;6.610;2023-02-26T11:02:47;3.60;57.10
16384;DHT22;8301;51.440;6.610;2023-02-26T11:05:19;3.60;39.20
16384;DHT22;8301;51.440;6.610;2023-02-26T11:07:49;3.80;52.50
16384;DHT22;8301;51.440;6.610;2023-02-26T11:10:17;3.90;21.60
16384;DHT22;8301;51.440;6.610;2023-02-26T11:12:45;4.00;1.00
16384;DHT22;8301;51.440;6.610;2023-02-26T11:15:19;3.90;1.00
16384;DHT22;8301;51.440;6.610;2023-02-26T11:17:47;4.00;1.00
16384;DHT22;8301;51.440;6.610;2023-02-26T11:20:36;4.20;1.00
16384;DHT22;8301;51.440;6.610;2023-02-26T11:23:03;4.20;1.00
16384;DHT22;8301;51.440;6.610;2023-02-26T11:25:32;4.10;1.00
16384;DHT22;8301;51.440;6.610;2023-02-26T11:28:04;4.30;1.00
16384;DHT22;8301;51.440;6.610;2023-02-26T11:30:36;4.20;1.00
16384;DHT22;8301;51.440;6.610;2023-02-26T11:33:27;4.00;1.00
16384;DHT22;8301;51.440;6.610;2023-02-26T11:35:35;4.10;1.00
16384;DHT22;8301;51.440;6.610;2023-02-26T11:38:02;4.30;1.00
16384;DHT22;8301;51.440;6.610;2023-02-26T11:40:44;4.40;1.00
16384;DHT22;8301;51.440;6.610;2023-02-26T11:43:14;4.40;1.00
16384;DHT22;8301;51.440;6.610;2023-02-26T11:45:44;4.80;1.00
16384;DHT22;8301;51.440;6.610;2023-02-26T11:48:12;4.90;1.00
16384;DHT22;8301;51.440;6.610;2023-02-26T11:50:45;5.00;1.00
16384;DHT22;8301;51.440;6.610;2023-02-26T11:53:17;5.10;1.00
16384;DHT22;8301;51.440;6.610;2023-02-26T11:55:45;4.90;1.00
16384;DHT22;8301;51.440;6.610;2023-02-26T11:58:17;4.90;1.00
16384;DHT22;8301;51.440;6.610;2023-02-26T12:00:46;4.80;1.00
16384;DHT22;8301;51.440;6.610;2023-02-26T12:03:16;5.00;1.00
16384;DHT22;8301;51.440;6.610;2023-02-26T12:05:43;4.80;1.00
16384;DHT22;8301;51.440;6.610;2023-02-26T12:08:18;4.70;1.00
16384;DHT22;8301;51.440;6.610;2023-02-26T12:10:51;4.50;1.00
16384;DHT22;8301;51.440;6.610;2023-02-26T12:25:04;5.00;1.00
16384;DHT22;8301;51.440;6.610;2023-02-26T12:26:45;4.60;1.00
16384;DHT22;8301;51.440;6.610;2023-02-26T12:29:25;4.20;1.00
16384;DHT22;8301;51.440;6.610;2023-02-26T12:39:49;4.50;1.00
16384;DHT22;8301;51.440;6.610;2023-02-26T12:50:38;4.80;1.00
16384;DHT22;8301;51.440;6.610;2023-02-26T12:55:39;5.20;1.00
16384;DHT22;8301;51.440;6.610;2023-02-26T13:03:38;4.30;1.00
16384;DHT22;8301;51.440;6.610;2023-02-26T13:08:48;4.40;1.00
16384;DHT22;8301;51.440;6.610;2023-02-26T13:11:20;4.70;1.00
16384;DHT22;8301;51.440;6.610;2023-02-26T13:21:42;4.80;1.00
16384;DHT22;8301;51.440;6.610;2023-02-26T13:24:09;4.70;1.00
16384;DHT22;8301;51.440;6.610;2023-02-26T13:26:31;4.80;1.00
16384;DHT22;8301;51.440;6.610;2023-02-26T13:29:09;5.20;1.00
16384;DHT22;8301;51.440;6.610;2023-02-26T13:31:39;5.20;1.00
16384;DHT22;8301;51.440;6.610;2023-02-26T13:34:25;5.40;1.00
16384;DHT22;8301;51.440;6.610;2023-02-26T13:36:51;5.50;1.00
16384;DHT22;8301;51.440;6.610;2023-02-26T13:39:28;5.40;1.00
16384;DHT22;8301;51.440;6.610;2023-02-26T13:42:04;4.70;1.00
16384;DHT22;8301;51.440;6.610;2023-02-26T13:52:23;4.80;1.00
16384;DHT22;8301;51.440;6.610;2023-02-26T13:54:50;5.00;1.00
16384;DHT22;8301;51.440;6.610;2023-02-26T14:02:58;5.30;1.00
16384;DHT22;8301;51.440;6.610;2023-02-26T14:10:27;5.10;1.00
16384;DHT22;8301;51.440;6.610;2023-02-26T14:15:40;5.20;1.00
16384;DHT22;8301;51.440;6.610;2023-02-26T14:18:30;5.20;1.00
16384;DHT22;8301;51.440;6.610;2023-02-26T14:20:37;5.20;1.00
16384;DHT22;8301;51.440;6.610;2023-02-26T14:25:37;5.30;1.00
16384;DHT22;8301;51.440;6.610;2023-02-26T14:28:19;5.20;1.00
16384;DHT22;8301;51.440;6.610;2023-02-26T14:30:48;5.20;1.00
16384;DHT22;8301;51.440;6.610;2023-02-26T14:33:16;5.20;1.00
16384;DHT22;8301;51.440;6.610;2023-02-26T14:35:47;5.10;1.00
16384;DHT22;8301;51.440;6.610;2023-02-26T14:38:27;4.90;1.00
16384;DHT22;8301;51.440;6.610;2023-02-26T14:40:56;5.00;1.00
16384;DHT22;8301;51.440;6.610;2023-02-26T14:46:03;4.80;1.00
16384;DHT22;8301;51.440;6.610;2023-02-26T14:48:30;4.90;1.00
16384;DHT22;8301;51.440;6.610;2023-02-26T14:56:09;4.90;1.00
16384;DHT22;8301;51.440;6.610;2023-02-26T15:01:24;4.90;1.00
16384;DHT22;8301;51.440;6.610;2023-02-26T15:09:26;5.30;1.00
16384;DHT22;8301;51.440;6.610;2023-02-26T15:20:26;5.20;1.00
16384;DHT22;8301;51.440;6.610;2023-02-26T15:22:08;5.30;1.00
16384;DHT22;8301;51.440;6.610;2023-02-26T15:24:32;5.30;1.00
16384;DHT22;8301;51.440;6.610;2023-02-26T15:27:02;5.30;1.00
16384;DHT22;8301;51.440;6.610;2023-02-26T15:29:34;5.20;1.00
16384;DHT22;8301;51.440;6.610;2023-02-26T15:32:43;5.20;1.00
16384;DHT22;8301;51.440;6.610;2023-02-26T15:34:32;5.00;1.00
16384;DHT22;8301;51.440;6.610;2023-02-26T15:36:59;4.90;1.00
16384;DHT22;8301;51.440;6.610;2023-02-26T15:39:26;4.90;1.00
16384;DHT22;8301;51.440;6.610;2023-02-26T15:44:31;4.70;1.00
16384;DHT22;8301;51.440;6.610;2023-02-26T15:47:04;4.70;1.00
16384;DHT22;8301;51.440;6.610;2023-02-26T15:49:44;4.70;1.00
16384;DHT22;8301;51.440;6.610;2023-02-26T15:52:18;4.70;1.00
16384;DHT22;8301;51.440;6.610;2023-02-26T15:55:01;4.70;1.00
16384;DHT22;8301;51.440;6.610;2023-02-26T15:57:23;4.60;1.00
16384;DHT22;8301;51.440;6.610;2023-02-26T15:59:52;4.60;1.00
16384;DHT22;8301;51.440;6.610;2023-02-26T16:02:21;4.60;1.00
16384;DHT22;8301;51.440;6.610;2023-02-26T16:04:48;4.50;1.00
16384;DHT22;8301;51.440;6.610;2023-02-26T16:07:22;4.50;1.00
16384;DHT22;8301;51.440;6.610;2023-02-26T16:09:50;4.40;1.00
16384;DHT22;8301;51.440;6.610;2023-02-26T16:12:25;4.40;1.00
16384;DHT22;8301;51.440;6.610;2023-02-26T16:14:51;4.30;1.00
16384;DHT22;8301;51.440;6.610;2023-02-26T16:17:25;4.30;1.00
16384;DHT22;8301;51.440;6.610;2023-02-26T16:19:52;4.30;1.00
16384;DHT22;8301;51.440;6.610;2023-02-26T16:27:44;4.20;1.00
16384;DHT22;8301;51.440;6.610;2023-02-26T16:30:19;4.20;1.00
16384;DHT22;8301;51.440;6.610;2023-02-26T16:32:42;4.10;1.00
16384;DHT22;8301;51.440;6.610;2023-02-26T16:35:15;4.10;1.00
16384;DHT22;8301;51.440;6.610;2023-02-26T16:37:40;4.10;1.00
16384;DHT22;8301;51.440;6.610;2023-02-26T16:40:23;4.10;1.00
16384;DHT22;8301;51.440;6.610;2023-02-26T16:42:53;4.00;1.00
16384;DHT22;8301;51.440;6.610;2023-02-26T16:48:04;3.90;1.00
16384;DHT22;8301;51.440;6.610;2023-02-26T16:50:33;3.90;1.00
16384;DHT22;8301;51.440;6.610;2023-02-26T16:53:05;3.90;1.00
16384;DHT22;8301;51.440;6.610;2023-02-26T16:55:34;3.90;1.00
16384;DHT22;8301;51.440;6.610;2023-02-26T16:58:09;3.80;1.00
16384;DHT22;8301;51.440;6.610;2023-02-26T17:00:36;3.80;1.00
16384;DHT22;8301;51.440;6.610;2023-02-26T17:03:16;3.80;1.00
16384;DHT22;8301;51.440;6.610;2023-02-26T17:06:04;3.70;1.00
16384;DHT22;8301;51.440;6.610;2023-02-26T17:08:18;3.70;1.00
16384;DHT22;8301;51.440;6.610;2023-02-26T17:11:01;3.70;1.00
16384;DHT22;8301;51.440;6.610;2023-02-26T17:13:26;3.60;1.00
16384;DHT22;8301;51.440;6.610;2023-02-26T17:15:57;3.60;1.00
16384;DHT22;8301;51.440;6.610;2023-02-26T17:18:22;3.50;1.00
16384;DHT22;8301;51.440;6.610;2023-02-26T17:20:50;3.50;1.00
16384;DHT22;8301;51.440;6.610;2023-02-26T17:23:17;3.40;1.00
16384;DHT22;8301;51.440;6.610;2023-02-26T17:25:47;3.30;1.00
16384;DHT22;8301;51.440;6.610;2023-02-26T17:28:22;3.30;1.00
16384;DHT22;8301;51.440;6.610;2023-02-26T17:30:51;3.20;1.00
16384;DHT22;8301;51.440;6.610;2023-02-26T17:33:19;3.20;1.00
16384;DHT22;8301;51.440;6.610;2023-02-26T17:35:46;3.10;1.00
16384;DHT22;8301;51.440;6.610;2023-02-26T17:38:13;3.00;1.00
16384;DHT22;8301;51.440;6.610;2023-02-26T17:40:41;3.00;1.00
16384;DHT22;8301;51.440;6.610;2023-02-26T17:43:09;3.00;1.00
16384;DHT22;8301;51.440;6.610;2023-02-26T17:45:37;3.00;1.00
16384;DHT22;8301;51.440;6.610;2023-02-26T17:48:05;2.90;1.00
16384;DHT22;8301;51.440;6.610;2023-02-26T17:53:09;2.90;1.00
16384;DHT22;8301;51.440;6.610;2023-02-26T17:55:38;2.80;1.00
16384;DHT22;8301;51.440;6.610;2023-02-26T17:58:05;2.80;1.00
16384;DHT22;8301;51.440;6.610;2023-02-26T18:00:35;2.80;1.00
16384;DHT22;8301;51.440;6.610;2023-02-26T18:03:04;2.80;1.00
16384;DHT22;8301;51.440;6.610;2023-02-26T18:05:31;2.80;1.00
16384;DHT22;8301;51.440;6.610;2023-02-26T18:07:59;2.80;1.00
16384;DHT22;8301;51.440;6.610;2023-02-26T18:10:26;2.80;1.00
16384;DHT22;8301;51.440;6.610;2023-02-26T18:12:54;2.80;1.00
16384;DHT22;8301;51.440;6.610;2023-02-26T18:15:21;2.80;1.00
16384;DHT22;8301;51.440;6.610;2023-02-26T18:17:47;2.80;1.00
16384;DHT22;8301;51.440;6.610;2023-02-26T18:20:16;2.80;1.00
16384;DHT22;8301;51.440;6.610;2023-02-26T18:22:43;2.90;1.00
16384;DHT22;8301;51.440;6.610;2023-02-26T18:25:11;3.00;1.00
16384;DHT22;8301;51.440;6.610;2023-02-26T18:27:39;3.00;1.00
16384;DHT22;8301;51.440;6.610;2023-02-26T18:30:41;3.00;1.00
16384;DHT22;8301;51.440;6.610;2023-02-26T18:32:41;3.00;1.00
16384;DHT22;8301;51.440;6.610;2023-02-26T18:35:10;2.90;1.00
16384;DHT22;8301;51.440;6.610;2023-02-26T18:37:41;2.80;11.30
16384;DHT22;8301;51.440;6.610;2023-02-26T18:40:15;2.80;22.40
16384;DHT22;8301;51.440;6.610;2023-02-26T18:42:42;2.90;31.20
16384;DHT22;8301;51.440;6.610;2023-02-26T18:45:09;2.80;47.30
16384;DHT22;8301;51.440;6.610;2023-02-26T18:47:37;2.80;82.70
16384;DHT22;8301;51.440;6.610;2023-02-26T18:50:14;2.80;89.00
16384;DHT22;8301;51.440;6.610;2023-02-26T18:52:41;2.80;99.90
16384;DHT22;8301;51.440;6.610;2023-02-26T18:55:09;2.80;99.90
16384;DHT22;8301;51.440;6.610;2023-02-26T18:57:40;2.80;99.90
16384;DHT22;8301;51.440;6.610;2023-02-26T19:00:10;2.80;99.90
16384;DHT22;8301;51.440;6.610;2023-02-26T19:02:41;2.80;99.90
16384;DHT22;8301;51.440;6.610;2023-02-26T19:05:09;2.80;99.90
16384;DHT22;8301;51.440;6.610;2023-02-26T19:07:36;2.80;99.90
16384;DHT22;8301;51.440;6.610;2023-02-26T19:10:04;2.80;99.90
16384;DHT22;8301;51.440;6.610;2023-02-26T19:12:33;2.70;99.90
16384;DHT22;8301;51.440;6.610;2023-02-26T19:15:06;2.80;99.90
16384;DHT22;8301;51.440;6.610;2023-02-26T19:17:33;2.70;99.90
16384;DHT22;8301;51.440;6.610;2023-02-26T19:20:06;2.70;99.90
16384;DHT22;8301;51.440;6.610;2023-02-26T19:22:34;2.70;99.90
16384;DHT22;8301;51.440;6.610;2023-02-26T19:25:02;2.70;99.90
16384;DHT22;8301;51.440;6.610;2023-02-26T19:27:31;2.70;99.90
16384;DHT22;8301;51.440;6.610;2023-02-26T19:29:58;2.60;99.90
16384;DHT22;8301;51.440;6.610;2023-02-26T19:32:25;2.50;99.90
16384;DHT22;8301;51.440;6.610;2023-02-26T19:34:53;2.50;99.90
16384;DHT22;8301;51.440;6.610;2023-02-26T19:37:19;2.60;99.90
16384;DHT22;8301;51.440;6.610;2023-02-26T19:39:46;2.50;99.90
16384;DHT22;8301;51.440;6.610;2023-02-26T19:42:14;2.40;99.90
16384;DHT22;8301;51.440;6.610;2023-02-26T19:44:42;2.30;99.90
16384;DHT22;8301;51.440;6.610;2023-02-26T19:49:39;2.30;99.90
16384;DHT22;8301;51.440;6.610;2023-02-26T19:52:08;2.30;99.90
16384;DHT22;8301;51.440;6.610;2023-02-26T19:54:35;2.30;99.90
16384;DHT22;8301;51.440;6.610;2023-02-26T19:57:02;2.30;99.90
16384;DHT22;8301;51.440;6.610;2023-02-26T19:59:28;2.30;1.00
16384;DHT22;8301;51.440;6.610;2023-02-26T20:01:55;2.30;1.00
16384;DHT22;8301;51.440;6.610;2023-02-26T20:04:23;2.30;99.90
16384;DHT22;8301;51.440;6.610;2023-02-26T20:06:50;2.30;99.90
16384;DHT22;8301;51.440;6.610;2023-02-26T20:09:17;2.30;1.00
16384;DHT22;8301;51.440;6.610;2023-02-26T20:11:45;2.40;1.00
16384;DHT22;8301;51.440;6.610;2023-02-26T20:14:13;2.40;1.00
16384;DHT22;8301;51.440;6.610;2023-02-26T20:16:39;2.30;1.00
16384;DHT22;8301;51.440;6.610;2023-02-26T20:19:06;2.40;1.00
16384;DHT22;8301;51.440;6.610;2023-02-26T20:21:33;2.40;1.00
16384;DHT22;8301;51.440;6.610;2023-02-26T20:24:01;2.50;99.90
16384;DHT22;8301;51.440;6.610;2023-02-26T20:26:29;2.50;99.90
16384;DHT22;8301;51.440;6.610;2023-02-26T20:29:03;2.50;99.90
16384;DHT22;8301;51.440;6.610;2023-02-26T20:31:30;2.50;1.00
16384;DHT22;8301;51.440;6.610;2023-02-26T20:33:56;2.50;1.00
16384;DHT22;8301;51.440;6.610;2023-02-26T20:36:23;2.40;1.00
16384;DHT22;8301;51.440;6.610;2023-02-26T20:38:55;2.40;1.00
16384;DHT22;8301;51.440;6.610;2023-02-26T20:41:18;2.20;1.00
16384;DHT22;8301;51.440;6.610;2023-02-26T20:43:46;2.30;1.00
16384;DHT22;8301;51.440;6.610;2023-02-26T20:46:13;2.20;1.00
16384;DHT22;8301;51.440;6.610;2023-02-26T20:48:40;2.20;1.00
16384;DHT22;8301;51.440;6.610;2023-02-26T20:51:09;2.20;1.00
16384;DHT22;8301;51.440;6.610;2023-02-26T20:53:37;2.10;1.00
16384;DHT22;8301;51.440;6.610;2023-02-26T20:56:04;2.00;1.00
16384;DHT22;8301;51.440;6.610;2023-02-26T20:58:31;2.00;1.00
16384;DHT22;8301;51.440;6.610;2023-02-26T21:03:28;1.90;1.00
16384;DHT22;8301;51.440;6.610;2023-02-26T21:05:55;2.00;1.00
16384;DHT22;8301;51.440;6.610;2023-02-26T21:08:22;2.00;1.00
16384;DHT22;8301;51.440;6.610;2023-02-26T21:10:52;2.00;1.00
16384;DHT22;8301;51.440;6.610;2023-02-26T21:13:19;1.90;1.00
16384;DHT22;8301;51.440;6.610;2023-02-26T21:15:47;1.90;1.00
16384;DHT22;8301;51.440;6.610;2023-02-26T21:18:14;2.00;1.00
16384;DHT22;8301;51.440;6.610;2023-02-26T21:20:43;1.90;1.00
16384;DHT22;8301;51.440;6.610;2023-02-26T21:23:10;1.90;1.00
16384;DHT22;8301;51.440;6.610;2023-02-26T21:25:37;1.90;1.00
16384;DHT22;8301;51.440;6.610;2023-02-26T21:28:04;1.80;1.00
16384;DHT22;8301;51.440;6.610;2023-02-26T21:30:31;1.80;1.00
16384;DHT22;8301;51.440;6.610;2023-02-26T21:32:58;1.80;1.00
16384;DHT22;8301;51.440;6.610;2023-02-26T21:35:25;1.70;1.00
16384;DHT22;8301;51.440;6.610;2023-02-26T21:37:52;1.70;1.00